createdAt,value
2022-12-13T00:06:31.345Z,13.23
2022-12-13T00:11:35.499Z,14.77
2022-12-13T00:16:39.008Z,13.70
2022-12-13T00:21:42.421Z,13.68
2022-12-13T00:26:46.143Z,13.18
2022-12-13T00:32:04.670Z,13.23
2022-12-13T00:37:08.157Z,12.85
2022-12-13T00:42:11.789Z,12.00
2022-12-13T00:47:15.228Z,13.85
2022-12-13T00:52:18.591Z,13.18
2022-12-13T00:57:21.996Z,12.68
2022-12-13T01:02:31.171Z,14.95
2022-12-13T01:07:42.821Z,15.40
2022-12-13T01:12:46.066Z,13.98
2022-12-13T01:22:52.531Z,14.45
2022-12-13T01:27:57.065Z,13.65
2022-12-13T01:33:00.405Z,12.70
2022-12-13T01:38:15.478Z,13.38
2022-12-13T01:43:19.459Z,13.75
2022-12-13T01:53:35.837Z,12.00
2022-12-13T01:58:41.069Z,12.40
2022-12-13T02:03:46.131Z,11.73
2022-12-13T02:08:50.215Z,9.75
2022-12-13T02:13:54.103Z,11.90
2022-12-13T02:19:34.537Z,10.10
2022-12-13T02:24:49.808Z,10.07
2022-12-13T02:30:23.194Z,11.55
2022-12-13T02:35:47.316Z,11.23
2022-12-13T02:41:07.381Z,12.13
2022-12-13T02:46:13.028Z,13.45
2022-12-13T02:51:18.084Z,12.50
2022-12-13T02:56:21.510Z,11.00
2022-12-13T03:02:09.813Z,12.63
2022-12-13T03:07:34.031Z,24.50
2022-12-13T03:13:04.447Z,23.70
2022-12-13T03:18:13.636Z,27.90
2022-12-13T03:23:20.429Z,27.90
2022-12-13T03:28:24.297Z,28.80
2022-12-13T03:33:27.703Z,28.33
2022-12-13T03:38:31.354Z,28.90
2022-12-13T03:43:34.857Z,26.35
2022-12-13T03:48:38.415Z,25.33
2022-12-13T03:53:41.910Z,23.15
2022-12-13T04:03:50.823Z,19.50
2022-12-13T04:08:54.385Z,18.67
2022-12-13T04:13:57.877Z,18.92
2022-12-13T04:19:01.379Z,20.23
2022-12-13T04:24:05.950Z,18.23
2022-12-13T04:29:10.546Z,17.27
2022-12-13T04:34:13.793Z,16.98
2022-12-13T04:44:29.068Z,14.43
2022-12-13T04:49:34.229Z,11.25
2022-12-13T04:54:37.818Z,10.70
2022-12-13T04:59:41.484Z,14.98
2022-12-13T05:04:54.140Z,12.15
2022-12-13T05:10:32.094Z,12.20
2022-12-13T05:15:37.115Z,12.35
2022-12-13T05:20:40.443Z,10.88
2022-12-13T05:25:43.879Z,9.20
2022-12-13T05:30:49.505Z,10.68
2022-12-13T05:35:57.800Z,11.65
2022-12-13T05:41:05.155Z,11.00
2022-12-13T05:46:09.258Z,9.55
2022-12-13T05:51:14.713Z,9.35
2022-12-13T05:56:22.830Z,8.77
2022-12-13T06:01:27.017Z,9.60
2022-12-13T06:06:30.447Z,10.15
2022-12-13T06:11:34.054Z,10.50
2022-12-13T06:16:37.477Z,11.32
2022-12-13T06:21:45.773Z,9.18
2022-12-13T06:26:52.409Z,10.02
2022-12-13T06:32:02.500Z,9.20
2022-12-13T06:37:09.393Z,8.73
2022-12-13T06:42:22.318Z,9.55
2022-12-13T06:47:30.968Z,15.80
2022-12-13T06:52:36.523Z,13.57
2022-12-13T06:57:40.611Z,11.57
2022-12-13T07:02:52.572Z,10.88
2022-12-13T07:07:56.802Z,11.00
2022-12-13T07:13:00.239Z,10.65
2022-12-13T07:18:04.040Z,11.00
2022-12-13T07:23:07.803Z,10.20
2022-12-13T07:28:11.201Z,10.50
2022-12-13T07:33:21.960Z,13.07
2022-12-13T07:38:26.145Z,10.98
2022-12-13T07:43:29.630Z,11.38
2022-12-13T07:48:42.776Z,11.75
2022-12-13T07:53:59.604Z,11.15
2022-12-13T07:59:11.400Z,9.90
2022-12-13T08:04:27.746Z,9.45
2022-12-13T08:09:36.246Z,10.85
2022-12-13T08:14:39.657Z,10.88
2022-12-13T08:19:44.868Z,9.25
2022-12-13T08:24:48.954Z,11.55
2022-12-13T08:29:52.349Z,10.80
2022-12-13T08:34:58.051Z,14.50
2022-12-13T08:40:02.480Z,11.85
2022-12-13T08:45:07.164Z,12.20
2022-12-13T08:50:10.563Z,12.68
2022-12-13T08:55:15.915Z,16.00
2022-12-13T09:00:20.536Z,13.00
2022-12-13T09:05:34.042Z,11.00
2022-12-13T09:10:38.851Z,10.25
2022-12-13T09:15:46.243Z,10.60
2022-12-13T09:20:51.442Z,10.20
2022-12-13T09:26:05.491Z,11.65
2022-12-13T09:31:12.412Z,13.10
2022-12-13T09:36:26.957Z,12.70
2022-12-13T09:42:00.614Z,11.85
2022-12-13T09:47:14.293Z,12.48
2022-12-13T09:52:21.800Z,13.52
2022-12-13T09:57:31.187Z,11.35
2022-12-13T10:02:49.752Z,12.30
2022-12-13T10:07:55.986Z,14.05
2022-12-13T10:13:14.483Z,12.82
2022-12-13T10:18:41.816Z,14.68
2022-12-13T10:24:23.186Z,15.10
2022-12-13T10:29:10.512Z,14.38
2022-12-13T10:34:35.628Z,15.18
2022-12-13T10:39:43.616Z,18.63
2022-12-13T10:44:47.465Z,16.02
2022-12-13T10:49:58.904Z,19.83
2022-12-13T10:55:23.064Z,15.70
2022-12-13T11:00:32.346Z,14.02
2022-12-13T11:05:37.484Z,17.77
2022-12-13T11:10:41.061Z,14.38
2022-12-13T11:15:44.876Z,11.30
2022-12-13T11:20:58.009Z,11.98
2022-12-13T11:26:09.157Z,14.02
2022-12-13T11:31:24.417Z,15.40
2022-12-13T11:36:46.505Z,12.90
2022-12-13T11:41:55.112Z,17.08
2022-12-13T11:47:01.254Z,15.35
2022-12-13T11:52:15.612Z,15.02
2022-12-13T11:57:49.164Z,15.90
2022-12-13T12:02:59.383Z,23.55
2022-12-13T12:08:33.314Z,17.98
2022-12-13T12:13:53.784Z,18.40
2022-12-13T12:19:01.974Z,20.23
2022-12-13T12:24:17.564Z,19.15
2022-12-13T12:29:22.248Z,17.80
2022-12-13T12:34:44.254Z,19.48
2022-12-13T12:40:23.556Z,20.30
2022-12-13T12:45:56.948Z,18.63
2022-12-13T12:51:12.982Z,20.52
2022-12-13T12:56:43.128Z,17.77
2022-12-13T13:01:57.360Z,17.48
2022-12-13T13:07:06.617Z,18.63
2022-12-13T13:12:29.001Z,19.23
2022-12-13T13:17:34.045Z,19.13
2022-12-13T13:22:43.466Z,18.20
2022-12-13T13:27:50.685Z,22.63
2022-12-13T13:32:58.514Z,17.65
2022-12-13T13:38:05.518Z,17.85
2022-12-13T13:43:12.298Z,18.67
2022-12-13T13:48:15.830Z,17.58
2022-12-13T13:53:25.075Z,18.05
2022-12-13T13:59:14.131Z,16.42
2022-12-13T14:04:47.803Z,17.00
2022-12-13T14:10:12.517Z,18.08
2022-12-13T14:15:25.432Z,18.90
2022-12-13T14:20:56.435Z,18.08
2022-12-13T14:26:24.359Z,17.60
2022-12-13T14:31:36.931Z,19.08
2022-12-13T14:37:06.876Z,18.25
2022-12-13T14:42:48.121Z,18.35
2022-12-13T14:47:54.473Z,17.13
2022-12-13T14:52:58.151Z,19.35
2022-12-13T14:58:03.260Z,18.17
2022-12-13T15:03:07.994Z,18.90
2022-12-13T15:08:15.829Z,19.17
2022-12-13T15:13:29.351Z,18.73
2022-12-13T15:18:34.857Z,19.30
2022-12-13T15:23:49.240Z,21.02
2022-12-13T15:29:10.387Z,19.08
2022-12-13T15:34:30.797Z,20.15
2022-12-13T15:39:40.175Z,19.23
2022-12-13T15:44:49.504Z,19.88
2022-12-13T15:49:52.899Z,21.00
2022-12-13T15:55:00.287Z,21.48
2022-12-13T16:00:19.021Z,21.70
2022-12-13T16:05:30.816Z,20.42
2022-12-13T16:10:35.126Z,23.63
2022-12-13T16:15:51.804Z,21.92
2022-12-13T16:21:15.943Z,21.30
2022-12-13T16:26:48.871Z,22.20
2022-12-13T16:32:08.247Z,21.42
2022-12-13T16:37:26.816Z,20.33
2022-12-13T16:42:31.618Z,21.05
2022-12-13T16:47:41.726Z,20.17
2022-12-13T16:52:54.581Z,21.35
2022-12-13T16:58:15.720Z,21.65
2022-12-13T17:03:19.232Z,20.48
2022-12-13T17:08:23.781Z,20.25
2022-12-13T17:13:28.489Z,20.25
2022-12-13T17:18:33.518Z,21.02
2022-12-13T17:23:41.501Z,20.73
2022-12-13T17:28:46.111Z,20.25
2022-12-13T17:33:49.499Z,20.52
2022-12-13T17:38:54.233Z,20.85
2022-12-13T17:44:00.635Z,19.30
2022-12-13T17:49:04.141Z,19.52
2022-12-13T17:54:08.971Z,21.95
2022-12-13T17:59:14.421Z,20.90
2022-12-13T18:04:19.349Z,21.02
2022-12-13T18:09:22.632Z,19.75
2022-12-13T18:14:26.984Z,23.20
2022-12-13T18:19:30.461Z,22.40
2022-12-13T18:24:33.776Z,19.48
2022-12-13T18:29:37.312Z,21.77
2022-12-13T18:34:40.634Z,20.08
2022-12-13T18:44:58.431Z,20.98
2022-12-13T18:50:02.130Z,20.60
2022-12-13T18:55:06.704Z,21.30
2022-12-13T19:00:10.426Z,19.95
2022-12-13T19:05:13.932Z,22.08
2022-12-13T19:10:17.817Z,20.67
2022-12-13T19:15:21.397Z,21.50
2022-12-13T19:20:25.400Z,21.48
2022-12-13T19:25:29.473Z,21.98
2022-12-13T19:30:35.876Z,22.40
2022-12-13T19:35:49.857Z,23.23
2022-12-13T19:40:53.474Z,23.23
2022-12-13T19:45:57.005Z,22.65
2022-12-13T19:51:07.322Z,24.52
2022-12-13T19:56:14.511Z,22.95
2022-12-13T20:01:18.780Z,24.40
2022-12-13T20:06:23.179Z,25.08
2022-12-13T20:11:26.645Z,24.30
2022-12-13T20:16:29.963Z,23.42
2022-12-13T20:21:33.912Z,23.85
2022-12-13T20:26:38.738Z,25.02
2022-12-13T20:31:42.828Z,24.67
2022-12-13T20:36:52.114Z,24.65
2022-12-13T20:41:55.617Z,25.25
2022-12-13T20:47:04.322Z,23.73
2022-12-13T20:52:07.741Z,26.55
2022-12-13T20:57:11.499Z,25.92
2022-12-13T21:02:15.053Z,25.83
2022-12-13T21:07:18.584Z,25.75
2022-12-13T21:12:32.645Z,25.92
2022-12-13T21:17:48.158Z,25.30
2022-12-13T21:22:51.575Z,25.38
2022-12-13T21:27:55.317Z,25.17
2022-12-13T21:38:05.317Z,23.75
2022-12-13T21:43:08.887Z,21.80
2022-12-13T21:48:12.491Z,21.85
2022-12-13T21:53:16.216Z,21.98
2022-12-13T21:58:23.766Z,20.75
2022-12-13T22:03:27.415Z,20.08
2022-12-13T22:08:30.750Z,21.30
2022-12-13T22:13:34.873Z,20.08
2022-12-13T22:18:38.341Z,20.17
2022-12-13T22:23:41.730Z,20.38
2022-12-13T22:28:45.595Z,21.05
2022-12-13T22:33:49.270Z,21.83
2022-12-13T22:38:54.964Z,20.98
2022-12-13T22:43:59.199Z,24.67
2022-12-13T22:49:02.494Z,23.25
2022-12-13T22:59:09.154Z,23.00
2022-12-13T23:04:12.579Z,23.45
2022-12-13T23:09:15.818Z,24.98
2022-12-13T23:14:28.173Z,25.95
2022-12-13T23:19:41.662Z,28.33
2022-12-13T23:24:54.576Z,28.20
2022-12-13T23:29:57.889Z,30.52
2022-12-13T23:35:01.388Z,28.88
2022-12-13T23:40:07.218Z,30.30
2022-12-13T23:45:10.662Z,30.63
2022-12-13T23:50:14.184Z,29.58
2022-12-13T23:55:17.939Z,29.45
